createdAt,value
2022-10-05T00:02:47.664Z,9.20
2022-10-05T00:06:40.825Z,3.50
2022-10-05T00:10:40.301Z,3.50
2022-10-05T00:22:41.642Z,3.10
2022-10-05T00:26:36.596Z,2.40
2022-10-05T00:30:28.027Z,2.80
2022-10-05T00:34:20.220Z,2.30
2022-10-05T01:14:09.257Z,2.50
2022-10-05T01:18:03.362Z,4.60
2022-10-05T01:22:07.000Z,15.00
2022-10-05T01:26:24.060Z,9.30
2022-10-05T01:30:25.061Z,3.90
2022-10-05T01:34:20.984Z,4.90
2022-10-05T01:38:16.713Z,5.40
2022-10-05T01:42:22.829Z,6.90
2022-10-05T01:46:17.017Z,5.50
2022-10-05T01:50:10.208Z,5.60
2022-10-05T01:54:07.889Z,5.10
2022-10-05T01:58:11.737Z,3.90
2022-10-05T02:02:12.154Z,3.90
2022-10-05T02:06:12.941Z,3.70
2022-10-05T02:10:07.384Z,3.60
2022-10-05T02:14:24.146Z,3.60
2022-10-05T02:18:22.674Z,3.70
2022-10-05T02:22:13.473Z,3.40
2022-10-05T02:26:09.346Z,3.90
2022-10-05T02:30:03.915Z,10.10
2022-10-05T02:37:49.983Z,4.70
2022-10-05T02:42:00.589Z,3.60
2022-10-05T02:45:58.570Z,4.40
2022-10-05T02:49:58.879Z,3.90
2022-10-05T02:54:06.196Z,4.40
2022-10-05T02:58:04.528Z,4.40
2022-10-05T03:01:52.678Z,4.90
2022-10-05T03:05:54.216Z,4.50
2022-10-05T03:09:48.035Z,5.80
2022-10-05T03:13:42.294Z,4.30
2022-10-05T03:18:03.117Z,3.80
2022-10-05T03:22:03.633Z,3.10
2022-10-05T03:26:02.360Z,2.60
2022-10-05T03:30:00.387Z,2.90
2022-10-05T03:34:00.532Z,2.90
2022-10-05T03:37:56.678Z,3.20
2022-10-05T03:42:06.598Z,2.70
2022-10-05T03:46:04.929Z,2.70
2022-10-05T03:49:55.841Z,2.70
2022-10-05T03:53:58.611Z,3.30
2022-10-05T03:57:52.103Z,3.50
2022-10-05T04:01:43.968Z,3.10
2022-10-05T04:05:38.222Z,3.50
2022-10-05T04:09:38.776Z,5.00
2022-10-05T04:13:49.859Z,4.00
2022-10-05T04:17:47.530Z,3.30
2022-10-05T04:21:39.598Z,4.30
2022-10-05T04:25:35.134Z,7.20
2022-10-05T04:29:37.924Z,5.40
2022-10-05T04:33:39.409Z,5.00
2022-10-05T04:37:36.997Z,6.80
2022-10-05T04:41:38.247Z,5.40
2022-10-05T04:45:38.867Z,4.20
2022-10-05T04:50:05.022Z,7.20
2022-10-05T04:54:07.331Z,4.70
2022-10-05T04:58:02.205Z,3.30
2022-10-05T05:02:06.990Z,7.20
2022-10-05T05:06:20.939Z,10.00
2022-10-05T05:10:27.394Z,17.60
2022-10-05T05:14:30.126Z,9.50
2022-10-05T05:18:43.370Z,10.20
2022-10-05T05:22:40.943Z,22.30
2022-10-05T05:26:39.187Z,20.50
2022-10-05T05:30:30.755Z,19.00
2022-10-05T05:34:24.841Z,16.40
2022-10-05T05:38:29.021Z,14.70
2022-10-05T05:42:25.481Z,12.40
2022-10-05T05:46:51.164Z,13.20
2022-10-05T05:50:38.790Z,13.60
2022-10-05T05:54:33.075Z,17.40
2022-10-05T05:58:36.959Z,16.40
2022-10-05T06:02:38.798Z,16.10
2022-10-05T06:06:37.055Z,13.60
2022-10-05T06:10:41.375Z,8.90
2022-10-05T06:14:34.792Z,12.10
2022-10-05T06:18:27.594Z,15.70
2022-10-05T06:22:39.932Z,8.70
2022-10-05T06:26:35.095Z,9.00
2022-10-05T06:30:35.115Z,9.30
2022-10-05T06:34:29.471Z,9.40
2022-10-05T06:38:43.414Z,6.90
2022-10-05T06:42:24.862Z,7.10
2022-10-05T06:46:19.410Z,4.80
2022-10-05T06:50:30.631Z,4.80
2022-10-05T06:54:37.713Z,5.70
2022-10-05T07:02:34.120Z,5.40
2022-10-05T07:06:59.649Z,5.80
2022-10-05T08:43:19.015Z,1.50
2022-10-05T08:46:20.288Z,1.40
2022-10-05T08:49:19.799Z,1.50
2022-10-05T08:52:08.819Z,1.90
2022-10-05T08:55:10.909Z,1.80
2022-10-05T08:57:55.686Z,1.40
2022-10-05T09:00:38.113Z,1.70
2022-10-05T09:04:05.210Z,1.80
2022-10-05T09:07:04.270Z,1.50
2022-10-05T09:10:17.239Z,1.80
2022-10-05T09:13:19.159Z,1.60
2022-10-05T09:16:17.562Z,1.00
2022-10-05T09:19:09.586Z,1.30
2022-10-05T09:21:49.652Z,1.40
2022-10-05T09:24:41.293Z,1.50
2022-10-05T09:27:18.282Z,1.30
2022-10-05T09:30:05.865Z,1.20
2022-10-05T09:33:14.052Z,1.20
2022-10-05T09:36:01.214Z,0.80
2022-10-05T09:38:56.485Z,1.00
2022-10-05T09:41:45.661Z,1.00
2022-10-05T09:44:54.972Z,1.10
2022-10-05T09:47:52.861Z,1.10
2022-10-05T09:51:00.296Z,1.20
2022-10-05T09:53:55.082Z,1.10
2022-10-05T09:57:01.436Z,1.30
2022-10-05T10:03:07.291Z,1.60
2022-10-05T10:06:02.179Z,1.20
2022-10-05T10:09:18.085Z,1.10
2022-10-05T10:12:19.179Z,1.20
2022-10-05T10:15:11.264Z,1.00
2022-10-05T10:18:08.710Z,1.20
2022-10-05T10:20:49.945Z,1.60
2022-10-05T10:23:34.628Z,1.30
2022-10-05T10:26:30.908Z,1.10
2022-10-05T10:29:20.265Z,1.30
2022-10-05T10:31:50.210Z,1.40
2022-10-05T10:35:08.572Z,1.30
2022-10-05T10:37:41.275Z,1.50
2022-10-05T10:40:39.984Z,1.00
2022-10-05T10:43:35.558Z,1.30
2022-10-05T10:46:20.983Z,1.30
2022-10-05T10:49:02.573Z,1.40
2022-10-05T10:51:58.797Z,1.30
2022-10-05T10:54:48.053Z,1.20
2022-10-05T10:57:32.776Z,1.50
2022-10-05T11:00:44.701Z,1.00
2022-10-05T11:03:32.759Z,1.20
2022-10-05T11:06:21.958Z,1.10
2022-10-05T11:09:29.044Z,1.30
2022-10-05T11:12:22.507Z,1.30
2022-10-05T11:15:21.255Z,1.20
2022-10-05T11:18:09.682Z,1.20
2022-10-05T11:21:04.307Z,1.30
2022-10-05T11:23:52.969Z,1.30
2022-10-05T11:26:40.400Z,1.20
2022-10-05T11:29:43.561Z,1.10
2022-10-05T11:32:52.969Z,1.60
2022-10-05T11:35:53.466Z,1.20
2022-10-05T11:38:50.999Z,1.50
2022-10-05T11:41:33.381Z,1.20
2022-10-05T11:44:25.660Z,1.80
2022-10-05T11:47:32.308Z,1.20
2022-10-05T11:50:12.768Z,1.40
2022-10-05T11:52:42.467Z,1.20
2022-10-05T11:55:27.773Z,1.10
2022-10-05T11:58:08.153Z,1.10
2022-10-05T12:00:42.805Z,1.00
2022-10-05T12:03:32.430Z,1.10
2022-10-05T12:06:22.496Z,1.00
2022-10-05T12:08:52.345Z,1.20
2022-10-05T12:11:46.960Z,1.20
2022-10-05T12:14:26.887Z,1.40
2022-10-05T12:17:21.806Z,1.50
2022-10-05T12:20:12.767Z,1.30
2022-10-05T12:22:49.890Z,1.30
2022-10-05T12:25:42.416Z,1.30
2022-10-05T12:28:22.172Z,1.20
2022-10-05T12:31:08.797Z,1.20
2022-10-05T12:34:13.477Z,1.20
2022-10-05T12:37:05.617Z,1.30
2022-10-05T12:39:57.793Z,1.10
2022-10-05T12:42:41.484Z,1.30
2022-10-05T12:45:32.349Z,1.50
2022-10-05T12:48:16.345Z,1.10
2022-10-05T12:50:51.871Z,1.20
2022-10-05T12:53:31.763Z,1.20
2022-10-05T12:56:29.487Z,1.10
2022-10-05T12:59:15.097Z,1.00
2022-10-05T13:01:58.635Z,1.20
2022-10-05T13:04:50.236Z,1.20
2022-10-05T13:07:40.466Z,1.40
2022-10-05T13:10:38.735Z,0.90
2022-10-05T13:13:17.393Z,1.10
2022-10-05T13:16:17.305Z,1.40
2022-10-05T13:19:05.950Z,1.20
2022-10-05T13:22:07.125Z,1.20
2022-10-05T13:24:59.900Z,1.30
2022-10-05T13:27:37.376Z,1.50
2022-10-05T13:30:19.849Z,1.20
2022-10-05T13:33:07.186Z,1.20
2022-10-05T13:35:54.232Z,1.20
2022-10-05T13:38:34.575Z,1.10
2022-10-05T13:41:25.054Z,1.40
2022-10-05T13:43:54.647Z,1.30
2022-10-05T13:46:48.095Z,1.10
2022-10-05T13:49:54.109Z,1.40
2022-10-05T13:52:42.731Z,1.30
2022-10-05T13:55:41.777Z,1.30
2022-10-05T13:58:15.358Z,0.90
2022-10-05T14:00:54.768Z,1.00
2022-10-05T14:03:39.007Z,1.80
2022-10-05T14:06:31.068Z,1.60
2022-10-05T14:09:00.794Z,1.20
2022-10-05T14:11:48.453Z,1.20
2022-10-05T14:14:28.586Z,1.40
2022-10-05T14:17:06.059Z,1.90
2022-10-05T14:19:53.034Z,1.50
2022-10-05T14:22:25.018Z,1.70
2022-10-05T14:25:47.007Z,1.70
2022-10-05T14:28:39.837Z,1.30
2022-10-05T14:31:27.786Z,1.30
2022-10-05T14:34:17.709Z,1.10
2022-10-05T14:37:00.618Z,1.30
2022-10-05T14:39:35.652Z,1.30
2022-10-05T14:42:26.053Z,1.20
2022-10-05T14:45:13.507Z,1.30
2022-10-05T14:47:52.594Z,1.50
2022-10-05T14:50:30.065Z,1.60
2022-10-05T14:53:12.344Z,1.30
2022-10-05T14:56:11.645Z,1.30
2022-10-05T14:59:35.838Z,1.60
2022-10-05T15:02:29.582Z,1.20
2022-10-05T15:05:25.968Z,1.70
2022-10-05T15:08:03.659Z,1.30
2022-10-05T15:10:52.585Z,1.70
2022-10-05T15:13:28.946Z,1.50
2022-10-05T15:16:00.889Z,1.70
2022-10-05T15:18:57.217Z,1.60
2022-10-05T15:21:45.954Z,1.60
2022-10-05T15:24:30.942Z,2.00
2022-10-05T15:27:04.649Z,4.70
2022-10-05T15:29:47.308Z,3.80
2022-10-05T15:32:42.488Z,3.50
2022-10-05T15:35:28.391Z,3.30
2022-10-05T15:38:05.954Z,3.30
2022-10-05T15:40:52.083Z,3.60
2022-10-05T15:43:23.630Z,3.00
2022-10-05T15:46:14.668Z,3.40
2022-10-05T15:48:49.721Z,3.30
2022-10-05T15:51:36.638Z,3.70
2022-10-05T15:54:30.158Z,3.90
2022-10-05T15:57:36.994Z,3.70
2022-10-05T16:00:19.143Z,3.60
2022-10-05T16:03:26.723Z,3.60
2022-10-05T16:06:29.669Z,3.50
2022-10-05T16:09:29.277Z,3.50
2022-10-05T16:12:19.582Z,3.30
2022-10-05T16:15:16.660Z,3.40
2022-10-05T16:18:05.839Z,2.90
2022-10-05T16:20:38.848Z,3.10
2022-10-05T16:23:18.191Z,3.70
2022-10-05T16:26:05.877Z,3.90
2022-10-05T16:29:22.009Z,10.10
2022-10-05T16:31:59.555Z,14.60
2022-10-05T16:34:45.567Z,15.20
2022-10-05T16:37:30.591Z,15.80
2022-10-05T16:40:40.420Z,12.10
2022-10-05T16:43:22.971Z,16.60
2022-10-05T16:46:11.078Z,20.30
2022-10-05T16:48:50.189Z,8.90
2022-10-05T16:51:58.136Z,11.40
2022-10-05T16:54:48.131Z,8.60
2022-10-05T16:57:22.200Z,3.60
2022-10-05T17:00:15.592Z,6.50
2022-10-05T17:03:09.129Z,6.00
2022-10-05T17:05:44.786Z,13.10
2022-10-05T17:08:21.809Z,14.60
2022-10-05T17:11:17.035Z,10.90
2022-10-05T17:13:58.991Z,4.50
2022-10-05T17:16:50.762Z,7.00
2022-10-05T17:19:33.204Z,5.30
2022-10-05T17:22:26.934Z,8.60
2022-10-05T17:25:31.326Z,7.70
2022-10-05T17:28:39.422Z,12.10
2022-10-05T17:31:18.291Z,10.00
2022-10-05T17:34:27.053Z,10.60
2022-10-05T17:37:18.048Z,9.60
2022-10-05T17:39:57.070Z,12.40
2022-10-05T17:42:42.674Z,14.80
2022-10-05T17:45:14.211Z,25.40
2022-10-05T17:47:56.179Z,22.40
2022-10-05T17:51:08.267Z,14.90
2022-10-05T17:54:08.705Z,27.10
2022-10-05T17:56:56.334Z,10.60
2022-10-05T17:59:39.730Z,5.50
2022-10-05T18:02:32.682Z,5.30
2022-10-05T18:05:13.137Z,6.00
2022-10-05T18:07:49.155Z,7.50
2022-10-05T18:10:30.344Z,40.80
2022-10-05T18:13:23.211Z,43.00
2022-10-05T18:15:54.033Z,14.50
2022-10-05T18:18:56.710Z,13.00
2022-10-05T18:21:33.353Z,9.60
2022-10-05T18:24:15.329Z,13.90
2022-10-05T18:27:07.049Z,12.40
2022-10-05T18:30:08.124Z,6.10
2022-10-05T18:33:13.513Z,4.70
2022-10-05T18:35:58.757Z,8.90
2022-10-05T18:38:57.377Z,7.50
2022-10-05T18:41:45.831Z,16.40
2022-10-05T18:44:54.683Z,12.50
2022-10-05T18:48:10.148Z,12.50
2022-10-05T18:50:56.846Z,13.50
2022-10-05T18:53:40.181Z,15.00
2022-10-05T18:56:55.320Z,15.90
2022-10-05T18:59:46.963Z,15.00
2022-10-05T19:02:37.938Z,14.10
2022-10-05T19:05:49.163Z,16.20
2022-10-05T19:09:03.602Z,14.70
2022-10-05T19:11:52.482Z,12.20
2022-10-05T19:14:51.306Z,9.10
2022-10-05T19:17:26.104Z,14.40
2022-10-05T19:20:17.860Z,6.40
2022-10-05T19:22:57.105Z,11.60
2022-10-05T19:25:53.372Z,9.30
2022-10-05T19:28:37.943Z,16.10
2022-10-05T19:31:14.819Z,12.90
2022-10-05T19:34:16.921Z,8.70
2022-10-05T19:37:06.356Z,13.10
2022-10-05T19:39:43.922Z,16.50
2022-10-05T19:42:25.085Z,21.20
2022-10-05T19:45:23.490Z,12.70
2022-10-05T19:48:01.276Z,12.50
2022-10-05T19:50:34.036Z,9.40
2022-10-05T19:53:19.356Z,9.40
2022-10-05T19:55:48.077Z,9.70
2022-10-05T19:58:40.227Z,6.30
2022-10-05T20:01:11.698Z,8.70
2022-10-05T20:03:48.264Z,5.90
2022-10-05T20:06:21.940Z,7.30
2022-10-05T20:09:01.929Z,8.90
2022-10-05T20:11:49.532Z,10.70
2022-10-05T20:14:33.823Z,11.20
2022-10-05T20:17:49.037Z,24.90
2022-10-05T20:20:39.758Z,24.80
2022-10-05T20:23:30.842Z,28.60
2022-10-05T20:26:21.391Z,26.80
2022-10-05T20:28:51.982Z,25.60
2022-10-05T20:31:22.636Z,19.10
2022-10-05T20:33:52.829Z,16.30
2022-10-05T20:36:21.544Z,9.10
2022-10-05T20:38:51.800Z,7.30
2022-10-05T20:41:22.024Z,18.30
2022-10-05T20:43:52.400Z,16.70
2022-10-05T20:46:23.496Z,15.90
2022-10-05T20:48:54.228Z,16.50
2022-10-05T20:51:25.031Z,15.00
2022-10-05T20:53:59.089Z,12.50
2022-10-05T20:56:30.576Z,11.10
2022-10-05T20:59:00.838Z,12.20
2022-10-05T21:01:32.283Z,12.00
2022-10-05T21:04:07.660Z,14.70
2022-10-05T21:06:36.448Z,11.30
2022-10-05T21:09:12.035Z,12.90
2022-10-05T21:11:46.352Z,13.10
2022-10-05T21:14:17.472Z,12.80
2022-10-05T21:16:47.482Z,7.00
2022-10-05T21:19:17.919Z,6.60
2022-10-05T21:21:47.806Z,9.90
2022-10-05T21:24:17.907Z,8.90
2022-10-05T21:26:48.105Z,16.30
2022-10-05T21:29:18.194Z,17.50
2022-10-05T21:31:48.111Z,17.40
2022-10-05T21:34:17.650Z,16.40
2022-10-05T21:36:47.448Z,14.30
2022-10-05T21:39:17.619Z,14.40
2022-10-05T21:41:49.805Z,15.50
2022-10-05T21:44:20.057Z,15.20
2022-10-05T21:46:50.530Z,13.00
2022-10-05T21:49:20.781Z,9.80
2022-10-05T21:51:50.877Z,8.50
2022-10-05T21:54:23.287Z,11.30
2022-10-05T21:56:57.814Z,11.40
2022-10-05T21:59:31.721Z,13.50
2022-10-05T22:02:02.760Z,12.80
2022-10-05T22:04:32.742Z,13.50
2022-10-05T22:07:02.206Z,11.20
2022-10-05T22:09:32.048Z,10.70
2022-10-05T22:12:02.855Z,11.90
2022-10-05T22:14:33.060Z,11.40
2022-10-05T22:17:03.385Z,10.40
2022-10-05T22:19:33.267Z,9.80
2022-10-05T22:22:03.449Z,10.30
2022-10-05T22:24:33.654Z,11.30
2022-10-05T22:27:04.071Z,9.90
2022-10-05T22:29:32.937Z,10.50
2022-10-05T22:32:04.446Z,10.70
2022-10-05T22:34:34.717Z,10.20
2022-10-05T22:37:06.948Z,9.30
2022-10-05T22:39:35.770Z,8.80
2022-10-05T22:42:08.294Z,8.70
2022-10-05T22:44:39.481Z,7.70
2022-10-05T22:47:09.789Z,8.10
2022-10-05T22:49:38.602Z,8.60
2022-10-05T22:52:08.827Z,7.50
2022-10-05T22:54:39.460Z,8.10
2022-10-05T22:57:09.786Z,8.60
2022-10-05T22:59:39.938Z,9.30
2022-10-05T23:02:09.959Z,9.60
2022-10-05T23:04:40.412Z,9.70
2022-10-05T23:07:10.348Z,9.80
2022-10-05T23:09:40.402Z,9.50
2022-10-05T23:12:10.437Z,8.50
2022-10-05T23:14:40.024Z,8.10
2022-10-05T23:17:09.871Z,7.40
2022-10-05T23:19:38.702Z,7.80
2022-10-05T23:22:08.195Z,8.00
2022-10-05T23:24:38.399Z,8.80
2022-10-05T23:27:08.778Z,8.60
2022-10-05T23:29:38.936Z,8.50
2022-10-05T23:32:08.719Z,8.20
2022-10-05T23:34:39.091Z,7.90
2022-10-05T23:37:09.383Z,7.80
2022-10-05T23:39:39.569Z,7.80
2022-10-05T23:42:10.797Z,7.90
2022-10-05T23:44:41.185Z,7.80
2022-10-05T23:47:11.141Z,7.40
2022-10-05T23:49:41.253Z,7.20
2022-10-05T23:52:09.988Z,7.30
2022-10-05T23:54:40.179Z,7.00
2022-10-05T23:57:10.414Z,7.00
2022-10-05T23:59:40.665Z,6.40
